Time;durP1;ratioP1;P1;durP2;ratioP2;P2;SDS_P1;SDS_P2;PMS_P1;PMS_P2;Temp;Humidity;BMP_temperature;BMP_pressure;BME280_temperature;BME280_humidity;BME280_pressure;Samples;Min_cycle;Max_cycle;Signal;HPM_P1;HPM_P2
2023/01/29 00:01:14;;;;;;;7.53;5.95;;;0.10;1.00;;;;;;5019600;28;20213;-80
2023/01/29 00:03:41;;;;;;;8.73;7.53;;;0.20;1.00;;;;;;5019522;28;20201;-80
2023/01/29 00:06:10;;;;;;;7.65;6.20;;;-0.10;99.90;;;;;;5020393;28;20225;-80
2023/01/29 00:08:38;;;;;;;8.75;6.38;;;0.20;99.90;;;;;;5021761;28;20308;-80
2023/01/29 00:11:07;;;;;;;10.60;6.63;;;0.20;99.90;;;;;;5021765;28;20200;-81
2023/01/29 00:13:34;;;;;;;9.32;6.43;;;0.20;99.90;;;;;;5021260;28;20205;-81
2023/01/29 00:16:02;;;;;;;8.90;7.28;;;0.20;1.00;;;;;;5020721;28;20308;-80
2023/01/29 00:18:29;;;;;;;10.80;7.38;;;0.20;99.90;;;;;;5021349;28;20209;-80
2023/01/29 00:20:56;;;;;;;7.18;6.55;;;0.10;45.40;;;;;;5019170;28;20209;-80
2023/01/29 00:23:24;;;;;;;8.70;6.53;;;0.20;99.90;;;;;;5019898;28;20211;-80
2023/01/29 00:25:52;;;;;;;9.60;7.03;;;0.20;35.60;;;;;;5022232;28;20232;-79
2023/01/29 00:28:19;;;;;;;10.07;6.80;;;0.10;24.70;;;;;;5030390;28;20228;-79
2023/01/29 00:30:45;;;;;;;9.45;7.03;;;0.40;99.90;;;;;;5032151;28;20228;-79
2023/01/29 00:33:12;;;;;;;9.73;7.25;;;0.20;1.00;;;;;;5032432;28;20205;-79
2023/01/29 00:35:40;;;;;;;11.32;6.35;;;0.00;1.00;;;;;;5030905;28;20263;-79
2023/01/29 00:38:07;;;;;;;11.32;7.40;;;0.20;99.90;;;;;;5030939;28;20251;-80
2023/01/29 00:46:05;;;;;;;9.57;7.78;;;0.00;99.90;;;;;;5018343;28;20227;-79
2023/01/29 00:48:33;;;;;;;11.02;7.82;;;0.20;28.80;;;;;;5021025;28;20216;-79
2023/01/29 00:51:00;;;;;;;9.00;7.22;;;0.20;3.40;;;;;;5023515;28;20204;-79
2023/01/29 00:53:27;;;;;;;14.70;8.40;;;0.20;19.50;;;;;;5022485;28;20201;-79
2023/01/29 00:55:53;;;;;;;9.48;7.93;;;0.20;99.90;;;;;;5021444;28;20250;-80
2023/01/29 00:58:26;;;;;;;11.50;7.70;;;0.20;99.90;;;;;;5020514;28;20201;-79
2023/01/29 01:00:54;;;;;;;10.77;8.48;;;0.20;99.90;;;;;;5019856;28;20220;-79
2023/01/29 01:03:20;;;;;;;9.93;7.90;;;0.30;99.90;;;;;;5018984;28;20204;-80
2023/01/29 01:05:47;;;;;;;9.23;7.90;;;0.00;99.90;;;;;;5018464;28;20243;-80
2023/01/29 01:11:01;;;;;;;9.00;8.10;;;0.20;99.90;;;;;;4992405;28;20204;-78
2023/01/29 01:13:31;;;;;;;11.98;9.18;;;0.20;1.00;;;;;;5017687;28;20212;-80
2023/01/29 01:15:58;;;;;;;12.65;9.23;;;0.20;1.00;;;;;;5018204;28;20291;-79
2023/01/29 01:18:25;;;;;;;15.50;8.85;;;0.10;99.90;;;;;;5020863;28;20300;-79
2023/01/29 01:20:57;;;;;;;12.60;9.30;;;0.20;99.90;;;;;;5022819;28;20642;-80
2023/01/29 01:23:24;;;;;;;14.43;8.60;;;0.20;99.90;;;;;;5018241;28;20192;-79
2023/01/29 01:25:51;;;;;;;13.15;10.10;;;-0.10;1.00;;;;;;5020095;28;20233;-79
2023/01/29 01:28:17;;;;;;;13.27;9.15;;;0.10;1.00;;;;;;5031903;28;20295;-80
2023/01/29 01:30:45;;;;;;;12.45;9.75;;;0.00;1.00;;;;;;5032463;28;20204;-80
2023/01/29 01:33:12;;;;;;;18.20;9.95;;;0.20;1.00;;;;;;5028949;28;20228;-79
2023/01/29 01:35:40;;;;;;;14.68;9.23;;;0.00;99.90;;;;;;5025360;28;20613;-79
2023/01/29 01:38:06;;;;;;;13.68;9.77;;;0.30;1.00;;;;;;5017029;28;20209;-80
2023/01/29 01:40:33;;;;;;;13.75;10.65;;;0.30;1.00;;;;;;5024173;28;20200;-79
2023/01/29 01:43:01;;;;;;;17.10;10.88;;;0.30;1.00;;;;;;5018850;28;20208;-80
2023/01/29 01:45:29;;;;;;;13.60;9.05;;;0.30;1.00;;;;;;5019620;28;20220;-80
2023/01/29 01:48:01;;;;;;;13.77;10.43;;;0.30;1.00;;;;;;5018564;28;20300;-80
2023/01/29 01:50:34;;;;;;;13.40;9.65;;;0.30;1.00;;;;;;5018048;28;20553;-81
2023/01/29 01:53:06;;;;;;;12.80;10.32;;;0.30;1.00;;;;;;5018199;28;20195;-79
2023/01/29 01:55:36;;;;;;;17.50;9.48;;;0.30;1.00;;;;;;5018577;28;20598;-81
2023/01/29 01:58:09;;;;;;;19.52;10.98;;;0.40;1.00;;;;;;5018634;28;20215;-81
2023/01/29 02:00:36;;;;;;;13.20;8.88;;;0.40;1.00;;;;;;5018945;28;20192;-82
2023/01/29 02:11:27;;;;;;;16.00;9.45;;;0.30;14.30;;;;;;5030703;28;20231;-81
2023/01/29 02:13:54;;;;;;;13.93;9.05;;;0.30;1.00;;;;;;5030783;28;20208;-80
2023/01/29 02:16:21;;;;;;;13.75;10.23;;;0.30;99.90;;;;;;5022392;28;20316;-81
2023/01/29 02:18:50;;;;;;;12.10;9.07;;;0.20;23.50;;;;;;5019760;28;20211;-81
2023/01/29 02:21:30;;;;;;;15.50;9.85;;;0.30;1.00;;;;;;5018404;28;20268;-81
2023/01/29 02:24:20;;;;;;;15.52;11.23;;;0.30;1.00;;;;;;5021235;28;20284;-80
2023/01/29 02:27:07;;;;;;;15.48;10.85;;;0.30;16.70;;;;;;5016981;28;20307;-80
2023/01/29 02:29:46;;;;;;;14.32;9.90;;;0.30;1.00;;;;;;5017546;28;20558;-82
2023/01/29 02:32:20;;;;;;;14.55;9.95;;;0.30;1.00;;;;;;5017327;28;20185;-80
2023/01/29 02:37:51;;;;;;;14.48;9.48;;;0.30;1.00;;;;;;5016966;28;20216;-82
2023/01/29 02:40:29;;;;;;;17.52;10.93;;;0.30;99.90;;;;;;5017056;28;20284;-81
2023/01/29 02:43:07;;;;;;;15.23;10.35;;;0.30;1.00;;;;;;5018999;28;20541;-81
2023/01/29 02:45:45;;;;;;;15.13;8.93;;;0.40;99.90;;;;;;5016699;28;20224;-81
2023/01/29 02:48:17;;;;;;;15.18;10.93;;;0.40;1.00;;;;;;5017243;28;20181;-80
2023/01/29 02:50:49;;;;;;;18.10;10.45;;;0.20;1.00;;;;;;5016431;28;20201;-80
2023/01/29 02:53:18;;;;;;;15.02;9.80;;;0.50;1.00;;;;;;5016432;28;20233;-80
2023/01/29 02:55:52;;;;;;;14.45;9.02;;;0.50;1.00;;;;;;5016334;28;20221;-80
2023/01/29 02:58:27;;;;;;;13.27;9.40;;;0.40;1.00;;;;;;5016473;28;20196;-80
2023/01/29 03:01:00;;;;;;;11.93;9.45;;;0.50;1.00;;;;;;5017937;28;20279;-80
2023/01/29 03:03:32;;;;;;;16.95;9.55;;;0.60;1.00;;;;;;5017306;28;20189;-81
2023/01/29 03:06:05;;;;;;;16.55;10.15;;;0.30;99.90;;;;;;5029246;28;20224;-81
2023/01/29 03:08:41;;;;;;;17.02;10.30;;;0.30;99.90;;;;;;5029924;28;20192;-80
2023/01/29 03:11:12;;;;;;;16.83;9.52;;;0.40;18.20;;;;;;5030595;28;20211;-80
2023/01/29 03:13:44;;;;;;;15.57;9.77;;;0.40;1.00;;;;;;5029976;28;20185;-80
2023/01/29 03:16:20;;;;;;;15.02;9.50;;;0.30;1.00;;;;;;5030178;28;20242;-80
2023/01/29 03:18:52;;;;;;;15.15;9.55;;;0.40;3.40;;;;;;5032890;28;20213;-80
2023/01/29 03:32:37;;;;;;;17.25;11.40;;;0.50;99.90;;;;;;5017059;28;20323;-82
2023/01/29 03:35:07;;;;;;;13.98;9.52;;;0.50;99.90;;;;;;5016895;28;20231;-80
2023/01/29 03:37:39;;;;;;;12.95;9.80;;;0.50;99.90;;;;;;5017077;28;20303;-80
2023/01/29 03:40:09;;;;;;;14.55;9.77;;;0.70;99.90;;;;;;5017243;28;20223;-80
2023/01/29 03:42:51;;;;;;;16.83;10.95;;;0.50;99.90;;;;;;5016817;28;20200;-80
2023/01/29 03:45:26;;;;;;;18.60;10.88;;;0.60;1.00;;;;;;5016526;28;20233;-80
2023/01/29 03:48:04;;;;;;;14.75;10.48;;;0.60;1.00;;;;;;5016661;28;20184;-80
2023/01/29 03:50:38;;;;;;;16.33;10.82;;;0.50;99.90;;;;;;5025537;28;20200;-80
2023/01/29 03:53:13;;;;;;;16.88;10.30;;;0.50;99.90;;;;;;5030904;28;20694;-80
2023/01/29 03:55:48;;;;;;;15.00;10.80;;;0.50;99.90;;;;;;5031142;28;20223;-80
2023/01/29 03:58:22;;;;;;;17.13;10.88;;;0.80;1.00;;;;;;5031407;28;20220;-81
2023/01/29 04:00:56;;;;;;;17.50;11.75;;;0.50;99.90;;;;;;5023517;28;20283;-81
2023/01/29 04:03:32;;;;;;;19.92;11.95;;;0.80;99.90;;;;;;5023693;28;20220;-80
2023/01/29 04:06:08;;;;;;;17.60;12.45;;;0.60;1.00;;;;;;5023801;28;20288;-80
2023/01/29 04:08:39;;;;;;;14.73;10.48;;;0.50;99.90;;;;;;5021591;28;20184;-81
2023/01/29 04:11:11;;;;;;;16.77;10.25;;;0.50;99.90;;;;;;5026736;28;20249;-81
2023/01/29 04:13:38;;;;;;;17.00;11.75;;;0.50;99.90;;;;;;5029863;28;20193;-80
2023/01/29 04:16:08;;;;;;;14.35;10.50;;;0.40;99.90;;;;;;5020579;28;20229;-81
2023/01/29 04:18:37;;;;;;;15.80;11.15;;;0.30;99.90;;;;;;5019989;28;20205;-81
2023/01/29 04:21:06;;;;;;;18.88;11.63;;;0.40;99.90;;;;;;5025495;28;20295;-80
2023/01/29 04:23:33;;;;;;;15.98;11.05;;;0.40;99.90;;;;;;5032866;28;20201;-80
2023/01/29 04:26:23;;;;;;;17.98;11.18;;;0.30;1.00;;;;;;5029514;28;20243;-80
2023/01/29 04:29:04;;;;;;;15.07;10.35;;;0.50;1.00;;;;;;5030768;28;20573;-81
2023/01/29 04:31:37;;;;;;;19.08;12.38;;;0.50;99.90;;;;;;5032161;28;20203;-80
2023/01/29 04:34:17;;;;;;;16.35;10.45;;;0.40;1.00;;;;;;5031481;28;20189;-81
2023/01/29 04:36:56;;;;;;;12.70;10.27;;;0.50;1.00;;;;;;5030250;28;20228;-80
2023/01/29 04:39:26;;;;;;;18.25;11.90;;;0.50;1.00;;;;;;5026400;28;20275;-82
2023/01/29 04:41:55;;;;;;;20.80;12.32;;;0.50;1.00;;;;;;5021152;28;20628;-80
2023/01/29 04:44:29;;;;;;;17.83;11.88;;;0.50;1.00;;;;;;5019708;28;20220;-80
2023/01/29 04:47:09;;;;;;;16.65;11.50;;;0.30;99.90;;;;;;5020189;28;20219;-81
2023/01/29 04:49:45;;;;;;;17.15;11.07;;;0.50;1.00;;;;;;5019613;28;20193;-82
2023/01/29 04:52:20;;;;;;;16.42;11.57;;;0.40;34.60;;;;;;5018540;28;20243;-81
2023/01/29 04:54:55;;;;;;;18.40;10.88;;;0.10;99.90;;;;;;5019018;28;20569;-79
2023/01/29 04:57:26;;;;;;;20.15;11.60;;;0.40;99.90;;;;;;5023883;28;20208;-80
2023/01/29 04:59:58;;;;;;;23.48;12.10;;;0.50;99.90;;;;;;5026068;28;20193;-81
2023/01/29 05:02:27;;;;;;;18.80;11.88;;;0.50;99.90;;;;;;5031963;28;20188;-82
2023/01/29 05:04:58;;;;;;;18.67;13.40;;;0.60;1.00;;;;;;5027690;28;20196;-80
2023/01/29 05:07:28;;;;;;;20.27;13.02;;;0.40;99.90;;;;;;5024804;28;20273;-82
2023/01/29 05:09:56;;;;;;;18.88;12.35;;;0.50;99.90;;;;;;5021277;28;20649;-80
2023/01/29 05:12:26;;;;;;;16.85;10.93;;;0.40;99.90;;;;;;5019003;28;20291;-81
2023/01/29 05:14:55;;;;;;;18.83;12.15;;;0.40;1.00;;;;;;5019354;28;20216;-82
2023/01/29 05:17:22;;;;;;;19.38;12.20;;;0.40;1.00;;;;;;5018456;28;20228;-81
2023/01/29 05:19:49;;;;;;;23.38;14.23;;;0.50;1.00;;;;;;5019315;28;20213;-81
2023/01/29 05:22:21;;;;;;;26.77;13.93;;;0.30;1.00;;;;;;5019103;28;20632;-81
2023/01/29 05:24:48;;;;;;;23.27;15.38;;;0.60;99.90;;;;;;5017949;28;20561;-80
2023/01/29 05:30:04;;;;;;;18.00;12.35;;;0.40;99.90;;;;;;5023974;28;20195;-86
2023/01/29 05:32:31;;;;;;;22.17;13.55;;;0.50;99.90;;;;;;5025106;28;20268;-86
2023/01/29 05:34:58;;;;;;;21.20;14.05;;;0.40;99.90;;;;;;5025449;28;20200;-87
2023/01/29 05:37:26;;;;;;;26.13;14.95;;;0.40;99.90;;;;;;5030473;28;20655;-86
2023/01/29 05:39:53;;;;;;;26.80;15.13;;;;;;;;;;5037267;28;20248;-86
2023/01/29 05:42:20;;;;;;;27.98;14.15;;;0.20;99.90;;;;;;5027063;28;20292;-86
2023/01/29 05:44:47;;;;;;;23.40;13.20;;;0.30;99.90;;;;;;5025320;28;20208;-86
2023/01/29 05:47:14;;;;;;;26.13;15.52;;;0.30;99.90;;;;;;5024550;28;20328;-86
2023/01/29 05:49:40;;;;;;;25.98;15.65;;;0.30;99.90;;;;;;5025067;28;20259;-85
2023/01/29 05:52:07;;;;;;;24.25;15.15;;;0.40;99.90;;;;;;5027788;28;20292;-88
2023/01/29 05:54:35;;;;;;;27.85;16.13;;;0.40;99.90;;;;;;5025331;28;20214;-86
2023/01/29 05:57:02;;;;;;;23.70;14.70;;;0.40;99.90;;;;;;5025818;28;20231;-87
2023/01/29 05:59:30;;;;;;;27.67;15.55;;;0.50;99.90;;;;;;5025701;28;20211;-88
2023/01/29 06:01:57;;;;;;;26.17;14.57;;;0.50;99.90;;;;;;5025002;28;20204;-86
2023/01/29 06:04:24;;;;;;;22.05;14.75;;;0.50;99.90;;;;;;5029808;28;20271;-86
2023/01/29 06:06:51;;;;;;;28.02;14.35;;;0.70;1.00;;;;;;5029638;28;20224;-86
2023/01/29 06:09:17;;;;;;;27.42;13.98;;;0.60;1.00;;;;;;5039087;28;20217;-85
2023/01/29 06:11:45;;;;;;;21.23;14.95;;;0.50;99.90;;;;;;5038908;28;20223;-84
2023/01/29 06:14:12;;;;;;;21.38;14.63;;;0.50;1.00;;;;;;5037716;28;20268;-84
2023/01/29 06:16:39;;;;;;;31.23;15.25;;;0.50;99.90;;;;;;5037293;28;20232;-85
2023/01/29 06:19:06;;;;;;;25.55;16.63;;;;;;;;;;5029741;28;20242;-86
2023/01/29 06:21:33;;;;;;;26.08;15.88;;;0.50;99.90;;;;;;5026645;28;20300;-86
2023/01/29 06:24:00;;;;;;;26.10;15.05;;;0.50;99.90;;;;;;5024103;28;20250;-85
2023/01/29 06:26:27;;;;;;;25.45;14.10;;;0.50;99.90;;;;;;5020929;28;20233;-86
2023/01/29 06:28:55;;;;;;;25.15;14.43;;;0.30;1.00;;;;;;5019837;28;20204;-85
2023/01/29 06:31:22;;;;;;;23.38;15.43;;;0.60;1.00;;;;;;5021995;28;20204;-86
2023/01/29 06:33:48;;;;;;;32.08;17.40;;;0.60;99.90;;;;;;5021225;28;20211;-85
2023/01/29 06:36:15;;;;;;;23.40;16.20;;;0.60;99.90;;;;;;5023240;28;20228;-86
2023/01/29 06:38:42;;;;;;;28.30;16.48;;;0.60;99.90;;;;;;5021485;28;20247;-84
2023/01/29 06:41:10;;;;;;;27.08;16.00;;;0.60;1.00;;;;;;5022829;28;20243;-85
2023/01/29 06:43:37;;;;;;;24.05;14.35;;;0.70;1.00;;;;;;5034103;28;20264;-84
2023/01/29 06:46:07;;;;;;;29.55;16.08;;;0.60;99.90;;;;;;5036727;28;20291;-85
2023/01/29 06:48:34;;;;;;;26.73;17.02;;;0.60;99.90;;;;;;5031173;28;20216;-86
2023/01/29 06:51:02;;;;;;;25.05;15.35;;;0.60;1.00;;;;;;5024044;28;20580;-86
2023/01/29 06:53:29;;;;;;;27.70;17.13;;;0.60;1.00;;;;;;5031998;28;20185;-86
2023/01/29 06:55:56;;;;;;;27.27;15.20;;;0.70;1.00;;;;;;5025571;28;20325;-84
2023/01/29 06:58:23;;;;;;;31.13;16.27;;;0.70;1.00;;;;;;5035382;28;20220;-85
2023/01/29 07:00:50;;;;;;;27.52;16.00;;;0.70;1.00;;;;;;5032502;28;20205;-85
2023/01/29 07:03:19;;;;;;;22.55;14.30;;;0.80;1.00;;;;;;5028203;28;20211;-85
2023/01/29 07:05:51;;;;;;;31.85;17.75;;;0.80;1.00;;;;;;5024782;28;20278;-84
2023/01/29 07:08:18;;;;;;;28.33;17.80;;;0.90;1.00;;;;;;5030809;28;20185;-84
2023/01/29 07:10:44;;;;;;;27.25;14.73;;;0.70;1.00;;;;;;5032144;28;20204;-86
2023/01/29 07:13:11;;;;;;;25.85;16.10;;;0.80;1.00;;;;;;5025623;28;20730;-86
2023/01/29 07:15:38;;;;;;;29.55;15.45;;;0.80;1.00;;;;;;5037413;28;20200;-84
2023/01/29 07:18:11;;;;;;;32.83;17.00;;;0.80;1.00;;;;;;5036713;28;20289;-85
2023/01/29 07:20:40;;;;;;;32.88;17.60;;;0.80;1.00;;;;;;5026452;28;20216;-86
2023/01/29 07:23:09;;;;;;;24.85;16.65;;;0.80;1.00;;;;;;5024002;28;20275;-84
2023/01/29 07:25:35;;;;;;;25.73;16.55;;;0.90;1.00;;;;;;5034438;28;20232;-85
2023/01/29 07:28:03;;;;;;;30.70;18.25;;;0.90;1.00;;;;;;5032344;28;20691;-85
2023/01/29 07:30:30;;;;;;;29.60;18.70;;;0.90;1.00;;;;;;5027706;28;20198;-85
2023/01/29 07:33:02;;;;;;;30.25;18.40;;;0.90;1.00;;;;;;5036305;28;20239;-86
2023/01/29 07:35:28;;;;;;;31.63;16.65;;;2.60;1.00;;;;;;5026359;28;20598;-86
2023/01/29 07:37:56;;;;;;;32.65;18.67;;;1.00;1.00;;;;;;5034198;28;20212;-83
2023/01/29 07:40:23;;;;;;;34.08;18.30;;;0.90;1.00;;;;;;5038142;28;20188;-84
2023/01/29 07:42:50;;;;;;;33.75;17.88;;;0.90;1.00;;;;;;5034942;28;20272;-84
2023/01/29 07:45:17;;;;;;;35.50;18.15;;;0.60;1.00;;;;;;5038103;28;20219;-83
2023/01/29 07:47:44;;;;;;;33.72;19.13;;;1.00;1.00;;;;;;5036990;28;20201;-86
2023/01/29 07:50:11;;;;;;;33.03;17.90;;;0.90;1.00;;;;;;5037793;28;20211;-86
2023/01/29 07:52:38;;;;;;;30.42;17.17;;;1.00;1.00;;;;;;5038185;28;20270;-85
2023/01/29 07:55:07;;;;;;;33.67;18.10;;;1.00;1.00;;;;;;5036424;28;20645;-85
2023/01/29 07:57:34;;;;;;;29.63;17.80;;;1.00;1.00;;;;;;5029421;28;20229;-86
2023/01/29 08:00:01;;;;;;;33.50;17.63;;;0.90;1.00;;;;;;5023931;28;20300;-84
2023/01/29 08:02:27;;;;;;;39.80;19.55;;;0.90;1.00;;;;;;5022889;28;20291;-85
2023/01/29 08:04:54;;;;;;;31.98;17.38;;;0.90;1.00;;;;;;5024719;28;20218;-86
2023/01/29 08:07:21;;;;;;;29.75;17.83;;;1.00;1.00;;;;;;5024859;28;20226;-86
2023/01/29 08:09:48;;;;;;;27.45;18.52;;;1.00;1.00;;;;;;5024919;28;20268;-86
2023/01/29 08:12:16;;;;;;;32.88;18.80;;;1.00;1.00;;;;;;5025416;28;20240;-86
2023/01/29 08:14:44;;;;;;;31.38;16.83;;;1.00;1.00;;;;;;5026494;28;20208;-86
2023/01/29 08:17:11;;;;;;;31.17;17.88;;;1.00;1.00;;;;;;5027132;28;20229;-86
2023/01/29 08:19:38;;;;;;;29.52;16.92;;;1.00;1.00;;;;;;5026592;28;20236;-87
2023/01/29 08:22:05;;;;;;;34.25;20.23;;;1.30;1.00;;;;;;5028980;28;20211;-86
2023/01/29 08:24:33;;;;;;;33.30;17.90;;;;;;;;;;5026613;28;20232;-87
2023/01/29 08:27:00;;;;;;;31.90;16.70;;;1.50;1.00;;;;;;5026401;28;20242;-86
2023/01/29 08:29:28;;;;;;;27.65;17.15;;;1.00;1.00;;;;;;5025783;28;20295;-86
2023/01/29 08:31:55;;;;;;;37.90;19.30;;;1.00;1.00;;;;;;5026744;28;20243;-86
2023/01/29 08:34:22;;;;;;;35.13;18.88;;;1.00;1.00;;;;;;5026584;28;20200;-87
2023/01/29 08:36:57;;;;;;;31.60;18.48;;;1.00;1.00;;;;;;5027424;28;20213;-85
2023/01/29 08:39:24;;;;;;;34.78;18.70;;;1.10;1.00;;;;;;5029396;28;20347;-85
2023/01/29 08:41:51;;;;;;;31.17;17.92;;;1.10;1.00;;;;;;5034610;28;20766;-86
2023/01/29 08:44:18;;;;;;;37.58;19.83;;;1.10;1.00;;;;;;5028890;28;20239;-87
2023/01/29 08:46:46;;;;;;;30.25;18.45;;;1.40;1.00;;;;;;5026868;28;20569;-85
2023/01/29 08:49:13;;;;;;;32.42;17.77;;;1.20;1.00;;;;;;5037254;28;20204;-85
2023/01/29 08:51:40;;;;;;;34.75;17.65;;;0.90;1.00;;;;;;5036602;28;20236;-86
2023/01/29 08:54:07;;;;;;;27.83;17.98;;;1.40;1.00;;;;;;5029572;28;20209;-85
2023/01/29 08:56:34;;;;;;;31.17;19.30;;;1.30;1.00;;;;;;5038463;28;20217;-83
2023/01/29 08:59:01;;;;;;;36.08;17.83;;;1.00;1.00;;;;;;5037641;28;20255;-85
2023/01/29 09:01:30;;;;;;;28.77;16.13;;;1.40;1.00;;;;;;5035504;28;20243;-85
2023/01/29 09:03:58;;;;;;;30.67;17.75;;;1.20;1.00;;;;;;5026027;28;20205;-85
2023/01/29 09:06:25;;;;;;;29.08;17.65;;;1.30;1.00;;;;;;5025414;28;20221;-85
2023/01/29 09:08:52;;;;;;;33.03;19.10;;;1.40;1.00;;;;;;5035072;28;20184;-83
2023/01/29 09:11:19;;;;;;;34.95;18.70;;;1.40;1.00;;;;;;5037864;28;20211;-84
2023/01/29 09:13:46;;;;;;;35.08;17.80;;;1.60;1.00;;;;;;5038010;28;20242;-85
2023/01/29 09:16:13;;;;;;;27.13;17.42;;;1.40;1.40;;;;;;5037100;28;20240;-83
2023/01/29 09:18:40;;;;;;;32.20;18.42;;;1.40;1.00;;;;;;5036251;28;20395;-85
2023/01/29 09:21:08;;;;;;;30.05;18.52;;;1.70;1.00;;;;;;5029741;28;20201;-84
2023/01/29 09:23:35;;;;;;;29.75;18.40;;;1.50;1.00;;;;;;5032041;28;20209;-86
2023/01/29 09:26:02;;;;;;;25.60;16.60;;;1.60;1.00;;;;;;5035772;28;20225;-85
2023/01/29 09:28:29;;;;;;;26.83;16.10;;;1.50;1.00;;;;;;5037205;28;20264;-84
2023/01/29 09:30:56;;;;;;;30.00;18.17;;;1.50;1.00;;;;;;5031720;28;20223;-85
2023/01/29 09:33:24;;;;;;;33.08;18.63;;;1.50;1.00;;;;;;5027618;28;20208;-85
2023/01/29 09:35:51;;;;;;;37.90;19.42;;;1.10;1.00;;;;;;5028136;28;20232;-85
2023/01/29 09:38:19;;;;;;;27.92;16.70;;;1.60;1.00;;;;;;5032308;28;20271;-86
2023/01/29 09:40:55;;;;;;;28.90;18.08;;;1.60;1.00;;;;;;5036785;28;20239;-85
2023/01/29 09:43:28;;;;;;;32.15;16.98;;;1.80;1.00;;;;;;5036924;28;20176;-86
2023/01/29 09:46:01;;;;;;;31.27;18.65;;;1.70;1.00;;;;;;5036642;28;20225;-85
2023/01/29 09:48:33;;;;;;;32.85;17.88;;;2.00;1.00;;;;;;5036218;28;20284;-84
2023/01/29 09:51:05;;;;;;;29.77;16.70;;;1.90;1.00;;;;;;5036621;28;20205;-86
2023/01/29 09:53:39;;;;;;;28.42;16.50;;;1.90;1.00;;;;;;5028663;28;20185;-85
2023/01/29 09:56:11;;;;;;;30.70;17.35;;;1.60;1.00;;;;;;5027737;28;20221;-87
2023/01/29 09:58:43;;;;;;;28.60;16.95;;;1.80;1.00;;;;;;5027473;28;20243;-87
2023/01/29 10:01:15;;;;;;;24.98;15.80;;;2.00;1.00;;;;;;5026916;28;20239;-85
2023/01/29 10:04:03;;;;;;;30.90;15.82;;;2.00;1.00;;;;;;5027987;28;20201;-87
2023/01/29 10:06:43;;;;;;;27.15;16.73;;;2.10;1.00;;;;;;5026057;28;20228;-85
2023/01/29 10:09:44;;;;;;;33.60;16.98;;;2.20;1.00;;;;;;5026687;28;20185;-86
2023/01/29 10:12:26;;;;;;;30.38;16.58;;;2.30;1.00;;;;;;5025421;28;20307;-85
2023/01/29 10:15:02;;;;;;;27.40;17.15;;;2.40;1.00;;;;;;5024694;28;20197;-85
2023/01/29 10:17:52;;;;;;;26.42;15.50;;;2.30;1.00;;;;;;5023830;28;20255;-86
2023/01/29 10:20:43;;;;;;;29.23;16.08;;;2.30;1.00;;;;;;5025954;28;20173;-86
2023/01/29 10:23:21;;;;;;;25.48;15.85;;;2.60;1.00;;;;;;5035002;28;20628;-85
2023/01/29 10:25:50;;;;;;;25.98;15.43;;;2.00;1.00;;;;;;5038423;28;20288;-86
2023/01/29 10:28:20;;;;;;;25.35;15.45;;;2.30;1.00;;;;;;5034690;28;20235;-86
2023/01/29 10:30:49;;;;;;;27.20;15.07;;;2.40;1.00;;;;;;5029868;28;20208;-86
2023/01/29 10:33:26;;;;;;;23.10;13.48;;;2.40;1.00;;;;;;5028730;28;20216;-86
2023/01/29 10:35:58;;;;;;;23.50;15.38;;;2.50;99.90;;;;;;5026877;28;20315;-86
2023/01/29 10:38:34;;;;;;;26.83;14.60;;;2.50;99.90;;;;;;5025454;28;20229;-85
2023/01/29 10:41:17;;;;;;;20.95;13.23;;;2.50;1.00;;;;;;5024720;28;20192;-84
2023/01/29 10:43:54;;;;;;;22.90;13.80;;;2.60;99.90;;;;;;5025295;28;20197;-87
2023/01/29 10:46:31;;;;;;;21.02;14.95;;;2.60;99.90;;;;;;5026594;28;20670;-86
2023/01/29 10:49:13;;;;;;;22.88;14.00;;;2.80;99.90;;;;;;5021118;28;20193;-85
2023/01/29 10:51:51;;;;;;;21.90;14.68;;;2.90;99.90;;;;;;5037930;28;20208;-85
2023/01/29 10:54:33;;;;;;;21.10;12.73;;;2.90;99.90;;;;;;5037768;28;20188;-86
2023/01/29 10:57:13;;;;;;;19.42;12.07;;;3.00;99.90;;;;;;5031651;28;20233;-84
2023/01/29 10:59:57;;;;;;;20.73;12.75;;;3.00;99.90;;;;;;5028725;28;20296;-85
2023/01/29 11:02:24;;;;;;;20.75;13.52;;;3.10;99.90;;;;;;5024299;28;20223;-86
2023/01/29 11:04:51;;;;;;;23.20;12.68;;;3.20;99.90;;;;;;5025265;28;20240;-86
2023/01/29 11:07:21;;;;;;;22.88;13.60;;;3.20;99.90;;;;;;5023960;28;20312;-85
2023/01/29 11:09:56;;;;;;;17.15;12.20;;;3.30;61.40;;;;;;5023172;28;20287;-87
2023/01/29 11:12:29;;;;;;;18.95;12.15;;;3.30;96.00;;;;;;5023813;28;20279;-86
2023/01/29 11:15:01;;;;;;;20.25;12.07;;;3.40;24.30;;;;;;5031775;28;20173;-85
2023/01/29 11:17:28;;;;;;;18.50;12.07;;;3.30;1.00;;;;;;5034698;28;20263;-85
2023/01/29 11:19:55;;;;;;;22.52;11.05;;;3.00;98.50;;;;;;5038072;28;20216;-85
2023/01/29 11:22:24;;;;;;;15.75;10.80;;;3.30;1.00;;;;;;5038413;28;20273;-84
2023/01/29 11:25:10;;;;;;;17.38;10.30;;;3.60;25.10;;;;;;5037881;28;20227;-85
2023/01/29 11:27:44;;;;;;;18.95;11.82;;;3.40;1.00;;;;;;5037532;22;20232;-80
2023/01/29 11:30:23;;;;;;;16.42;11.02;;;3.40;1.00;;;;;;5021507;28;20247;-80
2023/01/29 11:32:56;;;;;;;19.45;12.68;;;3.10;1.00;;;;;;5022051;28;20189;-81
2023/01/29 11:35:24;;;;;;;18.65;12.23;;;3.40;1.00;;;;;;5021454;28;20192;-81
2023/01/29 11:37:51;;;;;;;19.85;12.55;;;3.50;1.00;;;;;;5021116;28;20657;-81
2023/01/29 11:40:36;;;;;;;15.65;10.35;;;3.50;1.00;;;;;;5021065;28;20285;-81
2023/01/29 11:43:18;;;;;;;16.60;10.90;;;3.40;1.00;;;;;;5021177;28;20638;-80
2023/01/29 11:45:49;;;;;;;20.52;13.02;;;3.80;1.00;;;;;;5020828;28;20275;-81
2023/01/29 11:48:18;;;;;;;21.00;11.32;;;3.60;1.00;;;;;;5021228;28;20192;-80
2023/01/29 11:50:52;;;;;;;15.85;10.88;;;4.00;1.00;;;;;;5021498;28;20205;-80
2023/01/29 11:53:28;;;;;;;16.55;10.90;;;3.70;1.00;;;;;;5020669;28;20257;-81
2023/01/29 11:55:55;;;;;;;17.75;12.07;;;3.70;1.00;;;;;;5020717;28;20228;-80
2023/01/29 11:58:29;;;;;;;14.43;10.38;;;3.70;99.90;;;;;;5020517;28;20208;-80
2023/01/29 12:00:58;;;;;;;17.05;10.85;;;3.60;1.00;;;;;;5021143;28;20189;-80
2023/01/29 12:03:34;;;;;;;15.32;10.30;;;3.70;1.00;;;;;;5019458;28;20304;-80
2023/01/29 12:06:05;;;;;;;18.67;11.70;;;3.80;1.00;;;;;;5020500;28;20238;-80
2023/01/29 12:08:37;;;;;;;14.10;9.40;;;3.90;99.90;;;;;;5023236;28;20201;-80
2023/01/29 12:11:09;;;;;;;13.75;9.20;;;3.80;99.90;;;;;;5025435;28;20256;-80
2023/01/29 12:13:39;;;;;;;16.40;9.80;;;3.90;1.00;;;;;;5027837;28;20268;-80
2023/01/29 12:16:25;;;;;;;13.02;10.23;;;3.80;99.90;;;;;;5028142;28;20232;-79
2023/01/29 12:18:56;;;;;;;17.40;10.68;;;3.80;99.90;;;;;;5028332;28;20212;-81
2023/01/29 12:21:30;;;;;;;16.45;11.30;;;3.90;99.90;;;;;;5026191;28;20271;-80
2023/01/29 12:24:03;;;;;;;14.20;10.20;;;4.00;99.90;;;;;;5023157;28;20189;-81
2023/01/29 12:26:34;;;;;;;17.63;11.57;;;4.00;99.90;;;;;;5020541;28;20323;-81
2023/01/29 12:29:23;;;;;;;16.92;11.55;;;4.30;99.90;;;;;;5019244;28;20192;-80
2023/01/29 12:31:56;;;;;;;19.88;12.80;;;4.00;99.90;;;;;;5018836;28;20219;-81
2023/01/29 12:34:27;;;;;;;17.98;11.38;;;4.00;99.90;;;;;;5019716;28;20644;-80
2023/01/29 12:37:00;;;;;;;13.13;9.10;;;3.80;99.90;;;;;;5020095;28;20232;-80
2023/01/29 12:39:27;;;;;;;15.40;9.60;;;3.80;99.90;;;;;;5021736;28;20296;-81
2023/01/29 12:41:59;;;;;;;13.55;10.13;;;3.80;99.90;;;;;;5021382;28;20205;-80
2023/01/29 12:44:33;;;;;;;11.07;9.05;;;3.80;99.90;;;;;;5022008;28;20201;-79
2023/01/29 12:47:02;;;;;;;15.68;11.00;;;3.50;99.90;;;;;;5021015;28;20590;-80
2023/01/29 12:49:33;;;;;;;19.70;10.88;;;3.80;99.90;;;;;;5025268;28;20201;-80
2023/01/29 12:52:07;;;;;;;15.20;9.60;;;3.80;99.90;;;;;;5024908;28;20214;-80
2023/01/29 12:54:39;;;;;;;12.98;10.10;;;3.70;99.90;;;;;;5027787;28;20185;-80
2023/01/29 12:57:14;;;;;;;19.13;10.98;;;3.70;99.90;;;;;;5023876;28;20311;-81
2023/01/29 12:59:47;;;;;;;18.85;11.38;;;3.60;99.90;;;;;;5022092;28;20271;-80
2023/01/29 13:02:22;;;;;;;16.05;10.63;;;4.00;99.90;;;;;;5021338;28;20280;-81
2023/01/29 13:04:55;;;;;;;17.83;11.40;;;3.70;99.90;;;;;;5020534;28;20189;-80
2023/01/29 13:07:28;;;;;;;14.38;9.80;;;3.70;99.90;;;;;;5030575;28;20228;-79
2023/01/29 13:10:03;;;;;;;13.48;9.27;;;3.70;99.90;;;;;;5036515;28;20252;-79
2023/01/29 13:12:32;;;;;;;16.10;10.15;;;3.70;99.90;;;;;;5034707;28;20197;-79
2023/01/29 13:15:05;;;;;;;18.50;10.85;;;3.70;99.90;;;;;;5030804;28;20235;-79
2023/01/29 13:17:36;;;;;;;15.15;10.35;;;3.70;99.90;;;;;;5026342;28;20327;-79
2023/01/29 13:20:10;;;;;;;19.42;12.48;;;3.70;99.90;;;;;;5025551;28;20220;-80
2023/01/29 13:22:40;;;;;;;15.27;10.25;;;3.80;99.90;;;;;;5024882;28;20224;-81
2023/01/29 13:25:12;;;;;;;18.90;12.32;;;3.80;99.90;;;;;;5025095;28;20223;-79
2023/01/29 13:27:39;;;;;;;13.98;9.88;;;3.80;99.90;;;;;;5028221;28;20295;-79
2023/01/29 13:30:23;;;;;;;19.58;10.80;;;3.80;99.90;;;;;;5024854;28;20204;-80
2023/01/29 13:32:52;;;;;;;16.80;10.80;;;3.80;99.90;;;;;;5023097;28;20273;-79
2023/01/29 13:35:20;;;;;;;20.05;11.52;;;3.70;99.90;;;;;;5019536;28;20208;-80
2023/01/29 13:37:50;;;;;;;18.55;11.88;;;3.80;99.90;;;;;;5021835;28;20227;-79